Time;durP1;ratioP1;P1;durP2;ratioP2;P2;SDS_P1;SDS_P2;PMS_P1;PMS_P2;Temp;Humidity;BMP_temperature;BMP_pressure;BME280_temperature;BME280_humidity;BME280_pressure;Samples;Min_cycle;Max_cycle;Signal;HPM_P1;HPM_P2
2022/09/25 00:00:18;;;;;;;;;5.75;5.00;;;;;17.24;47.68;100947.91;5062293;28;45495;-58
2022/09/25 00:02:43;;;;;;;;;7.75;6.25;;;;;17.19;47.88;100942.78;5062599;28;45269;-58
2022/09/25 00:05:09;;;;;;;;;6.00;5.75;;;;;17.22;47.72;100958.59;5062305;28;45333;-58
2022/09/25 00:07:34;;;;;;;;;6.50;6.50;;;;;17.22;47.86;100958.59;5062659;28;45405;-59
2022/09/25 00:09:59;;;;;;;;;7.25;7.25;;;;;17.22;47.89;100961.25;5062377;28;45249;-59
2022/09/25 00:12:25;;;;;;;;;7.00;6.00;;;;;17.22;47.71;100968.38;5062312;28;45303;-59
2022/09/25 00:14:51;;;;;;;;;8.00;6.00;;;;;17.18;48.12;100967.63;5062309;28;47083;-59
2022/09/25 00:17:16;;;;;;;;;6.25;5.00;;;;;17.24;48.18;100973.59;5062312;28;45285;-59
2022/09/25 00:19:51;;;;;;;;;8.50;5.75;;;;;17.22;48.08;100966.56;5062086;28;45174;-59
2022/09/25 00:22:18;;;;;;;;;7.25;7.25;;;;;17.22;47.92;100971.03;5062286;28;45396;-59
2022/09/25 00:24:44;;;;;;;;;7.25;7.25;;;;;17.20;47.82;100968.41;5061293;28;46242;-59
2022/09/25 00:27:10;;;;;;;;;8.00;8.00;;;;;17.20;47.68;100964.88;5062147;28;45227;-59
2022/09/25 00:29:37;;;;;;;;;8.50;7.00;;;;;17.18;47.77;100966.72;5062373;28;45483;-59
2022/09/25 00:32:07;;;;;;;;;11.25;10.75;;;;;17.17;48.01;100970.34;5061896;28;45335;-58
2022/09/25 00:34:33;;;;;;;;;13.00;11.50;;;;;17.18;47.93;100980.00;5043585;28;45437;-59
2022/09/25 00:36:58;;;;;;;;;8.75;8.00;;;;;17.15;47.73;100966.84;5061950;28;45571;-58
2022/09/25 00:39:24;;;;;;;;;7.00;6.50;;;;;17.17;47.93;100970.34;5061983;28;45440;-58
2022/09/25 00:41:50;;;;;;;;;7.50;7.25;;;;;17.15;47.80;100973.03;5043722;28;45824;-58
2022/09/25 00:44:55;;;;;;;;;9.25;8.00;;;;;17.15;47.93;100975.69;5027037;28;48505;-59
2022/09/25 00:47:27;;;;;;;;;6.50;6.50;;;;;17.14;47.65;100973.09;5061995;28;45348;-58
2022/09/25 00:49:55;;;;;;;;;9.50;7.25;;;;;17.13;47.97;100977.53;5041507;28;45224;-59
2022/09/25 00:52:22;;;;;;;;;5.75;5.50;;;;;17.11;47.86;100957.28;5041664;28;45443;-59
2022/09/25 00:54:57;;;;;;;;;7.75;7.00;;;;;17.10;47.83;100960.84;5041493;28;46278;-59
2022/09/25 00:57:25;;;;;;;;;5.00;5.00;;;;;17.10;47.87;100967.03;5041484;28;45560;-58
2022/09/25 00:59:55;;;;;;;;;5.75;5.50;;;;;17.09;47.82;100967.94;5057480;28;45465;-58
2022/09/25 01:02:33;;;;;;;;;5.50;5.00;;;;;17.05;48.23;100958.38;5061629;28;45468;-58
2022/09/25 01:05:05;;;;;;;;;6.50;6.50;;;;;17.05;47.67;100961.88;5043026;28;47286;-59
2022/09/25 01:07:35;;;;;;;;;6.00;6.00;;;;;17.01;47.93;100957.63;5061449;28;45221;-58
2022/09/25 01:10:02;;;;;;;;;7.50;6.00;;;;;17.06;48.15;100958.31;5061474;28;45485;-58
2022/09/25 01:12:27;;;;;;;;;6.75;5.00;;;;;17.05;47.90;100955.72;5061180;28;45165;-59
2022/09/25 01:14:56;;;;;;;;;7.50;5.50;;;;;17.04;48.04;100954.88;5061185;28;45349;-58
2022/09/25 01:17:28;;;;;;;;;10.50;5.00;;;;;17.04;48.07;100965.47;5061430;28;45240;-58
2022/09/25 01:20:15;;;;;;;;;5.00;5.00;;;;;17.05;48.11;100961.03;5061303;28;45269;-58
2022/09/25 01:22:57;;;;;;;;;5.00;5.00;;;;;16.99;48.03;100954.19;5061246;28;45412;-58
2022/09/25 01:25:49;;;;;;;;;4.25;3.25;;;;;17.02;48.27;100958.50;5061261;28;45421;-59
2022/09/25 01:28:35;;;;;;;;;5.50;4.50;;;;;17.01;48.23;100967.38;5061054;28;45430;-58
2022/09/25 01:31:10;;;;;;;;;6.00;5.00;;;;;17.00;47.91;100960.34;5061296;28;45381;-58
2022/09/25 01:33:56;;;;;;;;;7.25;7.00;;;;;16.98;48.04;100967.47;5061111;28;45372;-58
2022/09/25 01:36:36;;;;;;;;;5.75;5.75;;;;;16.98;48.03;100956.84;5042671;28;47096;-58
2022/09/25 01:39:09;;;;;;;;;8.50;6.00;;;;;16.98;47.94;100959.50;5042661;28;45186;-58
2022/09/25 01:41:43;;;;;;;;;10.00;7.00;;;;;16.97;47.93;100963.13;5041224;28;45278;-58
2022/09/25 01:44:14;;;;;;;;;6.50;5.00;;;;;16.96;48.27;100956.06;5040673;28;45467;-58
2022/09/25 01:46:45;;;;;;;;;8.50;7.50;;;;;16.96;48.32;100953.41;5040764;28;47459;-58
2022/09/25 01:49:18;;;;;;;;;7.50;7.25;;;;;16.94;48.41;100950.78;5046835;28;45216;-59
2022/09/25 01:51:51;;;;;;;;;7.00;5.50;;;;;16.94;48.42;100944.63;5040214;28;45456;-59
2022/09/25 01:54:23;;;;;;;;;4.75;4.75;;;;;16.93;48.39;100959.72;5040886;28;45336;-58
2022/09/25 01:57:17;;;;;;;;;5.75;5.50;;;;;16.92;48.56;100952.66;5022486;28;47932;-59
2022/09/25 01:59:48;;;;;;;;;7.25;5.25;;;;;16.90;48.26;100951.81;5055348;28;45365;-59
2022/09/25 02:02:19;;;;;;;;;7.25;6.00;;;;;16.88;48.42;100949.22;5060918;28;45229;-59
2022/09/25 02:04:56;;;;;;;;;8.50;5.00;;;;;16.87;48.20;100950.13;5060335;28;45426;-59
2022/09/25 02:07:29;;;;;;;;;5.25;3.75;;;;;16.89;48.24;100948.31;5060567;28;46012;-59
2022/09/25 02:10:01;;;;;;;;;7.75;6.50;;;;;16.89;48.32;100947.41;5042455;28;46007;-59
2022/09/25 02:12:35;;;;;;;;;6.25;6.00;;;;;16.87;48.42;100944.84;5060510;28;45336;-59
2022/09/25 02:15:22;;;;;;;;;9.50;7.00;;;;;16.88;48.33;100953.69;5042528;28;45442;-59
2022/09/25 02:20:41;;;;;;;;;5.50;5.50;;;;;16.85;48.48;100951.13;5060269;28;45229;-59
2022/09/25 02:23:19;;;;;;;;;7.25;7.00;;;;;16.83;48.21;100952.94;5060591;28;45331;-59
2022/09/25 02:25:58;;;;;;;;;5.00;5.00;;;;;16.82;48.68;100951.25;5060420;28;45307;-59
2022/09/25 02:28:24;;;;;;;;;5.00;5.00;;;;;16.82;48.32;100953.91;5060088;28;45399;-59
2022/09/25 02:30:53;;;;;;;;;6.75;6.75;;;;;16.78;48.27;100949.59;5060416;28;45300;-59
2022/09/25 02:33:19;;;;;;;;;4.50;4.50;;;;;16.79;48.52;100952.22;5060469;28;45304;-59
2022/09/25 02:35:44;;;;;;;;;7.25;5.50;;;;;16.79;48.58;100960.19;5059786;28;45320;-59
2022/09/25 02:38:10;;;;;;;;;3.75;3.50;;;;;16.77;48.42;100962.03;5059998;28;45856;-59
2022/09/25 02:40:44;;;;;;;;;4.75;4.25;;;;;16.77;48.39;100967.34;5060052;28;45377;-58
2022/09/25 02:43:21;;;;;;;;;6.00;6.00;;;;;16.77;48.56;100962.03;5060186;28;45408;-59
2022/09/25 02:46:09;;;;;;;;;7.50;6.75;;;;;16.76;48.71;100960.28;5060130;28;45483;-59
2022/09/25 02:48:58;;;;;;;;;5.00;5.00;;;;;16.75;48.38;100961.19;5056051;28;46113;-59
2022/09/25 02:51:29;;;;;;;;;6.25;5.25;;;;;16.73;48.67;100955.97;5038846;28;45416;-59
2022/09/25 02:54:09;;;;;;;;;4.75;4.75;;;;;16.75;48.63;100963.84;5047184;28;45252;-59
2022/09/25 02:56:41;;;;;;;;;6.50;5.75;;;;;16.74;48.49;100959.47;5041733;28;45396;-59
2022/09/25 02:59:39;;;;;;;;;7.50;4.75;;;;;16.73;48.36;100963.06;5049462;28;45379;-59
2022/09/25 03:02:05;;;;;;;;;7.25;5.00;;;;;16.72;48.39;100963.97;5039687;28;45267;-59
2022/09/25 03:04:35;;;;;;;;;6.25;6.25;;;;;16.70;48.70;100964.03;5039625;28;45335;-59
2022/09/25 03:07:01;;;;;;;;;6.25;5.00;;;;;16.67;48.47;100961.47;5039787;28;45356;-59
2022/09/25 03:09:30;;;;;;;;;9.75;6.50;;;;;16.70;48.61;100968.47;5039533;28;45374;-59
2022/09/25 03:11:56;;;;;;;;;7.00;5.50;;;;;16.68;48.88;100967.69;5039638;28;45436;-59
2022/09/25 03:14:22;;;;;;;;;6.50;5.50;;;;;16.69;48.82;100972.03;5039448;28;45413;-59
2022/09/25 03:16:55;;;;;;;;;8.75;5.50;;;;;16.68;48.78;100975.63;5039601;28;45480;-59
2022/09/25 03:19:21;;;;;;;;;7.50;5.50;;;;;16.67;48.77;100973.91;5039355;28;47147;-59
2022/09/25 03:21:47;;;;;;;;;6.00;6.00;;;;;16.66;48.93;100975.66;5039383;28;45788;-59
2022/09/25 03:24:13;;;;;;;;;8.00;5.75;;;;;16.66;48.70;100977.47;5039598;28;45238;-59
2022/09/25 03:26:39;;;;;;;;;8.75;7.50;;;;;16.66;48.65;100977.47;5039382;28;45337;-59
2022/09/25 03:29:05;;;;;;;;;8.00;7.00;;;;;16.65;48.68;100983.69;5039015;28;46305;-59
2022/09/25 03:31:31;;;;;;;;;8.50;8.25;;;;;16.65;48.89;100986.34;5039543;28;45241;-59
2022/09/25 03:33:57;;;;;;;;;9.00;6.00;;;;;16.64;48.56;100987.25;5034940;28;45543;-59
2022/09/25 03:36:25;;;;;;;;;7.00;5.00;;;;;16.62;48.99;100989.13;5039442;28;45345;-59
2022/09/25 03:38:54;;;;;;;;;6.00;5.75;;;;;16.63;49.12;100982.88;5021091;28;48204;-59
2022/09/25 03:41:21;;;;;;;;;7.00;6.50;;;;;16.61;48.93;100982.94;5039181;28;45207;-59
2022/09/25 03:43:50;;;;;;;;;7.50;6.25;;;;;16.60;48.95;100993.59;5039052;28;45214;-59
2022/09/25 03:46:16;;;;;;;;;9.25;6.00;;;;;16.58;49.18;100999.81;5038631;28;45286;-59
2022/09/25 03:48:42;;;;;;;;;12.75;12.75;;;;;16.57;49.24;100995.44;5045463;28;46373;-59
2022/09/25 03:51:08;;;;;;;;;11.25;7.75;;;;;16.58;49.01;101001.63;5038399;28;52960;-59
2022/09/25 03:53:34;;;;;;;;;14.00;13.50;;;;;16.56;49.05;101001.69;5039151;28;45238;-59
2022/09/25 03:56:04;;;;;;;;;13.25;12.50;;;;;16.54;49.17;101000.84;5039160;28;45537;-59
2022/09/25 03:58:31;;;;;;;;;14.50;13.50;;;;;16.53;49.20;101003.56;5043309;28;46385;-59
2022/09/25 04:00:56;;;;;;;;;19.00;18.00;;;;;16.50;48.99;100991.28;5061228;28;45453;-59
2022/09/25 04:03:23;;;;;;;;;14.00;11.75;;;;;16.46;49.04;100991.44;5062559;28;45518;-59
2022/09/25 04:05:49;;;;;;;;;16.75;14.75;;;;;16.49;49.28;100997.50;5062377;28;45478;-59
2022/09/25 04:08:15;;;;;;;;;16.25;14.75;;;;;16.49;49.38;100991.31;5044037;28;46952;-59
2022/09/25 04:10:41;;;;;;;;;16.50;13.25;;;;;16.46;48.95;100992.28;5062510;28;45170;-59
2022/09/25 04:13:11;;;;;;;;;15.25;15.00;;;;;16.47;49.21;101003.78;5062240;28;45391;-59
2022/09/25 04:15:38;;;;;;;;;10.50;10.25;;;;;16.45;49.35;101006.47;5062478;28;45316;-59
2022/09/25 04:18:04;;;;;;;;;12.00;12.00;;;;;16.44;49.38;101002.09;5043905;28;45955;-59
2022/09/25 04:20:30;;;;;;;;;7.50;7.00;;;;;16.43;49.12;101008.31;5049667;28;45234;-59
2022/09/25 04:22:55;;;;;;;;;10.50;8.25;;;;;16.42;49.06;101002.13;5042130;28;45360;-59
2022/09/25 04:25:24;;;;;;;;;10.25;8.25;;;;;16.40;49.03;100996.03;5042137;28;45257;-59
2022/09/25 04:27:54;;;;;;;;;13.00;10.00;;;;;16.41;48.99;100992.47;5041978;28;47166;-59
2022/09/25 04:30:23;;;;;;;;;6.00;5.75;;;;;16.36;49.12;100986.47;5041880;28;45297;-59
2022/09/25 04:35:34;;;;;;;;;7.75;7.75;;;;;16.36;48.97;101004.13;5041698;28;45333;-59
2022/09/25 04:37:59;;;;;;;;;6.00;5.00;;;;;16.35;49.55;101000.63;5041789;28;47208;-59
2022/09/25 04:40:26;;;;;;;;;9.75;7.50;;;;;16.33;49.39;100996.31;5041702;28;45538;-59
2022/09/25 04:42:59;;;;;;;;;9.75;8.25;;;;;16.32;49.24;101000.72;5041947;28;45277;-59
2022/09/25 04:45:25;;;;;;;;;7.50;5.50;;;;;16.32;49.49;100995.41;5041851;28;45301;-59
2022/09/25 04:47:55;;;;;;;;;6.00;6.00;;;;;16.31;49.10;101006.09;5045268;28;46203;-59
2022/09/25 04:50:21;;;;;;;;;7.75;7.75;;;;;16.27;49.16;101007.97;5044105;28;45291;-59
2022/09/25 04:52:48;;;;;;;;;4.50;4.50;;;;;16.27;49.52;101005.31;5041724;28;45237;-59
2022/09/25 04:55:15;;;;;;;;;8.50;5.00;;;;;16.28;49.49;101008.84;5041618;28;45325;-59
2022/09/25 04:57:41;;;;;;;;;9.25;9.00;;;;;16.26;49.58;101011.53;5041297;28;46177;-59
2022/09/25 05:00:07;;;;;;;;;5.50;5.00;;;;;16.25;49.36;101015.97;5059488;28;47675;-59
2022/09/25 05:02:32;;;;;;;;;10.75;10.25;;;;;16.24;49.24;101022.19;5061849;28;45591;-59
2022/09/25 05:04:57;;;;;;;;;6.00;5.50;;;;;16.24;49.30;101024.84;5061469;28;45450;-59
2022/09/25 05:07:22;;;;;;;;;12.25;10.25;;;;;16.24;49.22;101030.16;5061551;28;45646;-59
2022/09/25 05:09:48;;;;;;;;;8.50;8.50;;;;;16.23;49.46;101030.22;5061119;28;45239;-59
2022/09/25 05:12:13;;;;;;;;;13.00;11.00;;;;;16.21;49.24;101035.56;5061230;28;45251;-58
2022/09/25 05:14:41;;;;;;;;;13.00;10.50;;;;;16.20;49.40;101036.47;5061356;28;45508;-59
2022/09/25 05:17:10;;;;;;;;;12.75;10.50;;;;;16.20;49.59;101030.28;5061537;28;45573;-59
2022/09/25 05:19:36;;;;;;;;;14.00;14.00;;;;;16.16;49.78;101031.31;5059701;28;45387;-58
2022/09/25 05:22:02;;;;;;;;;19.25;14.25;;;;;16.19;49.26;101042.69;5061510;28;45374;-59
2022/09/25 05:24:27;;;;;;;;;17.25;14.50;;;;;16.13;49.64;101032.28;5043062;28;46393;-59
2022/09/25 05:26:52;;;;;;;;;11.50;10.25;;;;;16.15;49.92;101035.78;5061275;28;46332;-59
2022/09/25 05:29:18;;;;;;;;;21.00;15.25;;;;;16.13;49.62;101028.78;5060971;28;45239;-59
2022/09/25 05:31:45;;;;;;;;;12.50;11.00;;;;;16.12;49.50;101033.22;5061181;28;45531;-59
2022/09/25 05:34:12;;;;;;;;;17.00;17.00;;;;;16.11;49.75;101034.13;5060411;28;46451;-59
2022/09/25 05:36:38;;;;;;;;;17.25;13.75;;;;;16.11;49.90;101038.56;5060927;28;46208;-59
2022/09/25 05:39:03;;;;;;;;;14.75;11.75;;;;;16.09;49.45;101035.97;5060682;28;45311;-59
2022/09/25 05:41:30;;;;;;;;;16.75;14.50;;;;;16.07;49.83;101051.94;5060430;28;46974;-59
2022/09/25 05:43:56;;;;;;;;;17.50;16.50;;;;;16.08;49.72;101047.47;5060791;28;45442;-59
2022/09/25 05:46:21;;;;;;;;;18.50;16.75;;;;;16.08;49.87;101036.88;5060085;28;45444;-59
2022/09/25 05:48:46;;;;;;;;;23.00;16.00;;;;;16.06;49.61;101041.34;5055433;28;45458;-59
2022/09/25 05:51:12;;;;;;;;;17.25;15.75;;;;;16.06;49.45;101041.34;5040621;28;45324;-59
2022/09/25 05:53:37;;;;;;;;;18.25;15.25;;;;;16.05;49.80;101048.44;5040767;28;45392;-59
2022/09/25 05:56:04;;;;;;;;;16.25;16.25;;;;;16.05;49.74;101044.91;5040614;28;46528;-59
2022/09/25 05:58:32;;;;;;;;;18.75;15.25;;;;;16.04;49.58;101048.50;5026913;28;45243;-59
2022/09/25 06:01:05;;;;;;;;;13.25;13.00;;;;;16.03;49.58;101046.78;5060679;28;45293;-59
2022/09/25 06:03:31;;;;;;;;;17.25;15.75;;;;;16.02;49.73;101047.69;5060601;28;45245;-59
2022/09/25 06:05:58;;;;;;;;;18.00;16.25;;;;;16.01;49.48;101045.94;5059114;28;45345;-59
2022/09/25 06:08:24;;;;;;;;;19.50;14.00;;;;;15.98;49.83;101036.31;5060423;28;45363;-59
2022/09/25 06:10:52;;;;;;;;;13.25;12.00;;;;;16.00;50.04;101047.72;5060530;28;45323;-59
2022/09/25 06:13:18;;;;;;;;;14.25;11.50;;;;;16.00;49.86;101046.84;5060016;28;45550;-60
2022/09/25 06:15:43;;;;;;;;;18.25;14.00;;;;;15.98;49.61;101049.56;5060334;28;46299;-59
2022/09/25 06:18:08;;;;;;;;;15.00;13.50;;;;;15.98;49.64;101059.31;5060377;28;45233;-60
2022/09/25 06:20:34;;;;;;;;;20.50;17.00;;;;;15.97;50.00;101060.22;5059978;28;48659;-57
2022/09/25 06:23:00;;;;;;;;;18.00;16.00;;;;;15.97;50.05;101055.75;5059559;28;45240;-57
2022/09/25 06:25:29;;;;;;;;;11.25;11.25;;;;;15.95;49.88;101065.56;5060215;28;45377;-59
2022/09/25 06:27:55;;;;;;;;;17.00;15.50;;;;;15.97;50.09;101065.50;5042639;28;45274;-59
2022/09/25 06:30:26;;;;;;;;;17.00;14.75;;;;;15.99;49.50;101066.34;5060258;28;45334;-59
2022/09/25 06:32:58;;;;;;;;;16.00;14.50;;;;;16.00;50.12;101073.34;5060024;28;45487;-59
2022/09/25 06:35:24;;;;;;;;;13.75;11.50;;;;;16.00;49.62;101076.00;5059803;28;46993;-59
2022/09/25 06:37:50;;;;;;;;;13.50;12.00;;;;;16.00;50.36;101078.66;5060075;28;45300;-59
2022/09/25 06:40:15;;;;;;;;;14.25;14.00;;;;;16.00;49.98;101076.00;5041461;28;45463;-59
2022/09/25 06:42:41;;;;;;;;;13.75;11.25;;;;;15.99;49.20;101075.16;5059997;28;45568;-59
2022/09/25 06:45:09;;;;;;;;;20.00;14.50;;;;;16.01;49.63;101089.22;5059909;28;46348;-59
2022/09/25 06:47:35;;;;;;;;;12.50;11.50;;;;;15.98;49.94;101081.38;5059933;28;45543;-59
2022/09/25 06:50:00;;;;;;;;;12.25;12.25;;;;;16.01;49.64;101085.69;5044945;28;45310;-59
2022/09/25 06:52:25;;;;;;;;;13.00;9.75;;;;;16.02;49.92;101087.44;5039559;28;51322;-59
2022/09/25 06:54:51;;;;;;;;;12.25;10.00;;;;;16.02;49.91;101087.44;5035182;28;52349;-60
2022/09/25 06:57:16;;;;;;;;;13.25;11.00;;;;;16.01;50.00;101086.59;5039627;28;45319;-58
2022/09/25 06:59:41;;;;;;;;;12.00;10.75;;;;;16.02;49.68;101083.00;5036394;28;45387;-59
2022/09/25 07:04:51;;;;;;;;;15.00;13.00;;;;;16.02;50.06;101087.44;5059631;28;45318;-58
2022/09/25 07:07:20;;;;;;;;;12.25;11.75;;;;;15.98;49.79;101089.31;5059723;28;45328;-59
2022/09/25 07:09:47;;;;;;;;;13.75;8.75;;;;;15.93;49.65;101089.44;5059684;28;45178;-58
2022/09/25 07:12:13;;;;;;;;;13.00;13.00;;;;;15.91;49.60;101085.13;5059417;28;45356;-58
2022/09/25 07:14:40;;;;;;;;;11.50;10.50;;;;;15.92;49.85;101086.84;5059533;28;45516;-58
2022/09/25 07:17:06;;;;;;;;;14.50;11.25;;;;;15.88;49.62;101086.06;5059536;28;45275;-58
2022/09/25 07:19:31;;;;;;;;;15.00;13.75;;;;;15.86;49.92;101087.94;5059401;28;45324;-58
2022/09/25 07:21:57;;;;;;;;;9.00;9.00;;;;;15.85;49.83;101093.28;5041352;28;45806;-58
2022/09/25 07:24:22;;;;;;;;;12.25;10.25;;;;;15.84;49.64;101091.53;5059511;28;45389;-58
2022/09/25 07:26:47;;;;;;;;;9.00;7.75;;;;;15.81;49.68;101100.41;5041746;28;45253;-58
2022/09/25 07:29:13;;;;;;;;;11.00;9.75;;;;;15.81;49.52;101094.22;5059421;28;45146;-58
2022/09/25 07:31:38;;;;;;;;;14.25;11.00;;;;;15.80;49.51;101092.50;5059398;28;45332;-58
2022/09/25 07:34:11;;;;;;;;;7.75;6.50;;;;;15.80;49.48;101092.50;5060061;28;45412;-58
2022/09/25 07:36:38;;;;;;;;;5.75;5.75;;;;;15.81;49.61;101097.75;5062853;28;45338;-58
2022/09/25 07:39:03;;;;;;;;;8.50;8.50;;;;;15.82;49.57;101096.00;5044412;28;45283;-58
2022/09/25 07:41:29;;;;;;;;;15.00;9.75;;;;;15.81;49.47;101095.13;5062739;28;45229;-58
2022/09/25 07:43:56;;;;;;;;;10.25;9.75;;;;;15.82;49.83;101096.84;5062509;28;45229;-58
2022/09/25 07:46:22;;;;;;;;;11.50;10.00;;;;;15.82;49.90;101101.31;5062877;28;45293;-58
2022/09/25 07:48:48;;;;;;;;;9.50;7.25;;;;;15.82;49.81;101106.59;5057420;28;45223;-58
2022/09/25 07:51:14;;;;;;;;;12.75;9.75;;;;;15.82;49.40;101102.16;5042440;28;45497;-58
2022/09/25 07:53:40;;;;;;;;;8.00;6.00;;;;;15.83;49.74;101103.91;5042341;28;45393;-58
2022/09/25 07:56:05;;;;;;;;;9.00;7.75;;;;;15.85;49.54;101104.72;5042497;28;45335;-58
2022/09/25 07:58:31;;;;;;;;;10.75;8.25;;;;;15.81;49.98;101100.41;5047188;28;45558;-58
2022/09/25 08:01:01;;;;;;;;;7.75;6.00;;;;;15.89;49.84;101110.81;5044522;28;45485;-58
2022/09/25 08:03:30;;;;;;;;;9.25;6.75;;;;;15.90;49.53;101113.41;5062513;28;46073;-58
2022/09/25 08:06:01;;;;;;;;;7.25;6.50;;;;;15.93;49.50;101117.75;5062287;28;45381;-59
2022/09/25 08:08:28;;;;;;;;;7.50;6.75;;;;;15.98;49.45;101114.97;5044484;28;45291;-58
2022/09/25 08:10:59;;;;;;;;;6.50;5.75;;;;;15.99;49.54;101111.41;5062280;28;45293;-58
2022/09/25 08:13:25;;;;;;;;;4.50;4.50;;;;;16.05;49.69;101119.13;5062277;28;47169;-59
2022/09/25 08:15:50;;;;;;;;;6.25;5.00;;;;;16.08;49.53;101119.06;5062302;28;45213;-58
2022/09/25 08:18:16;;;;;;;;;6.00;5.00;;;;;16.13;49.50;101116.28;5044634;28;45453;-59
2022/09/25 08:20:41;;;;;;;;;11.00;6.50;;;;;16.18;49.68;101119.66;5062250;28;45468;-59
2022/09/25 08:23:07;;;;;;;;;4.75;3.25;;;;;16.21;49.77;101115.13;5062202;28;46074;-59
2022/09/25 08:25:32;;;;;;;;;6.00;4.00;;;;;16.27;49.59;101115.84;5044118;28;45227;-58
2022/09/25 08:27:58;;;;;;;;;5.00;3.75;;;;;16.31;49.56;101106.84;5044230;28;45461;-61
2022/09/25 08:30:23;;;;;;;;;3.00;2.50;;;;;16.37;49.81;101114.63;5061908;28;45875;-58
2022/09/25 08:32:51;;;;;;;;;4.75;4.25;;;;;16.37;49.88;101110.16;5062214;28;46055;-60
2022/09/25 08:35:17;;;;;;;;;3.00;3.00;;;;;16.47;49.43;101121.34;5061887;28;45411;-59
2022/09/25 08:37:43;;;;;;;;;5.25;4.00;;;;;16.52;49.57;101119.41;5062110;28;45420;-59
2022/09/25 08:40:16;;;;;;;;;5.75;4.00;;;;;16.58;49.45;101119.22;5061716;28;45497;-58
2022/09/25 08:42:44;;;;;;;;;4.00;4.00;;;;;16.68;49.53;101124.22;5043256;28;46659;-59
2022/09/25 08:50:58;;;;;;;;;4.00;4.00;;;;;16.90;48.99;101119.91;5051264;28;45547;-59
2022/09/25 08:53:24;;;;;;;;;7.50;4.00;;;;;17.01;49.25;101116.03;5061469;28;45201;-59
2022/09/25 08:58:42;;;;;;;;;4.00;3.50;;;;;17.18;48.68;101108.34;5050335;28;45306;-59
2022/09/25 09:01:15;;;;;;;;;2.25;2.00;;;;;17.28;49.29;101108.88;5061581;28;45576;-59
2022/09/25 09:03:51;;;;;;;;;85.67;78.67;;;;;17.36;49.01;101095.31;5061030;28;45810;-59
2022/09/25 09:06:17;;;;;;;;;2.50;2.00;;;;;17.52;49.00;101109.75;5061606;28;45515;-59
2022/09/25 09:08:50;;;;;;;;;35.75;33.00;;;;;17.61;48.87;101115.63;5043179;28;45214;-59
2022/09/25 09:11:29;;;;;;;;;2.75;2.75;;;;;17.70;48.83;101113.50;5061116;28;45471;-59
2022/09/25 09:14:10;;;;;;;;;1.50;1.00;;;;;17.85;48.48;101124.50;5043227;28;48279;-59
2022/09/25 09:16:45;;;;;;;;;3.00;1.00;;;;;17.94;48.79;101110.00;5061339;28;45271;-59
2022/09/25 09:19:11;;;;;;;;;1.00;1.00;;;;;18.03;48.50;101115.81;5061316;28;45318;-58
2022/09/25 09:21:43;;;;;;;;;3.75;1.50;;;;;18.18;48.31;101132.94;5043345;28;45543;-59
2022/09/25 09:24:15;;;;;;;;;2.00;1.00;;;;;18.31;48.08;101121.81;5060986;28;46407;-59
2022/09/25 09:26:59;;;;;;;;;1.00;0.00;;;;;18.45;48.29;101119.47;5061344;28;45209;-59
2022/09/25 09:29:59;;;;;;;;;1.00;1.00;;;;;18.57;48.04;101128.72;5061111;28;45221;-59
2022/09/25 09:32:36;;;;;;;;;1.00;1.00;;;;;18.72;47.68;101121.06;5057944;28;45873;-59
2022/09/25 09:35:16;;;;;;;;;1.00;1.00;;;;;18.84;47.89;101118.72;5061116;28;45348;-59
2022/09/25 09:37:57;;;;;;;;;2.75;2.75;;;;;18.96;47.58;101120.00;5061006;28;45255;-59
2022/09/25 09:40:35;;;;;;;;;5.00;2.00;;;;;19.09;47.09;101116.81;5060780;28;45475;-59
2022/09/25 09:43:11;;;;;;;;;4.75;4.50;;;;;19.22;46.89;101117.13;5060875;28;45451;-59
2022/09/25 09:45:53;;;;;;;;;6.00;5.75;;;;;19.35;47.13;101125.47;5060788;28;45249;-59
2022/09/25 09:48:31;;;;;;;;;2.50;2.50;;;;;19.46;47.08;101118.69;5060524;28;45276;-59
2022/09/25 09:51:10;;;;;;;;;2.50;2.00;;;;;19.60;46.67;101117.22;5040741;28;45250;-59
2022/09/25 09:53:45;;;;;;;;;2.25;2.25;;;;;19.72;46.30;101113.09;5054109;28;45258;-59
2022/09/25 09:56:17;;;;;;;;;1.75;1.00;;;;;19.85;46.28;101118.75;5040649;28;45364;-59
2022/09/25 09:58:55;;;;;;;;;3.00;1.00;;;;;19.96;46.81;101113.78;5045423;28;45300;-59
2022/09/25 10:01:24;;;;;;;;;1.00;1.00;;;;;20.09;46.40;101117.59;5060579;28;45381;-59
2022/09/25 10:04:02;;;;;;;;;1.75;1.75;;;;;20.22;46.23;101115.19;5042433;28;45380;-59
2022/09/25 10:06:32;;;;;;;;;1.00;0.50;;;;;20.30;45.40;101112.13;5060457;28;46522;-58
2022/09/25 10:08:57;;;;;;;;;0.50;0.50;;;;;20.45;45.55;101115.84;5060610;28;45292;-58
2022/09/25 10:11:24;;;;;;;;;31.25;29.00;;;;;20.56;45.73;101115.31;5060312;28;45374;-58
2022/09/25 10:13:50;;;;;;;;;1.00;1.00;;;;;20.66;45.25;101116.59;5060593;28;45209;-58
2022/09/25 10:16:18;;;;;;;;;2.50;1.00;;;;;20.76;45.22;101117.88;5042201;28;46152;-59
2022/09/25 10:19:20;;;;;;;;;1.75;1.25;;;;;20.89;44.70;101110.13;5060096;28;45430;-57
2022/09/25 10:22:04;;;;;;;;;29.50;23.75;;;;;21.03;44.76;101111.19;5060324;28;45271;-57
2022/09/25 10:25:04;;;;;;;;;4.25;2.00;;;;;21.15;44.88;101109.69;5060337;28;45236;-57
2022/09/25 10:27:42;;;;;;;;;2.00;2.00;;;;;21.28;44.28;101108.06;5055918;28;46236;-58
2022/09/25 10:30:08;;;;;;;;;2.50;1.50;;;;;21.38;44.67;101113.78;5060206;28;45250;-58
2022/09/25 10:32:44;;;;;;;;;0.00;0.00;;;;;21.50;44.33;101099.78;5060137;28;45359;-58
2022/09/25 10:35:19;;;;;;;;;3.00;2.00;;;;;21.63;43.79;101099.13;5060074;28;45155;-58
2022/09/25 10:37:50;;;;;;;;;2.00;2.00;;;;;21.74;43.56;101105.59;5042040;28;46089;-58
2022/09/25 10:40:55;;;;;;;;;3.00;3.00;;;;;21.88;43.81;101093.28;5059704;28;45364;-58
2022/09/25 10:43:23;;;;;;;;;2.00;2.00;;;;;22.00;43.12;101092.59;5056625;28;45636;-58
2022/09/25 10:45:54;;;;;;;;;2.00;2.00;;;;;22.14;43.44;101104.28;5060135;28;45289;-59
2022/09/25 10:51:16;;;;;;;;;2.00;1.50;;;;;22.44;43.10;101106.19;5039858;28;45336;-59
2022/09/25 10:53:42;;;;;;;;;3.00;3.00;;;;;22.49;42.97;101090.72;5039762;28;45339;-59
2022/09/25 10:56:11;;;;;;;;;1.50;1.00;;;;;22.71;42.62;101101.88;5039881;28;45319;-58
2022/09/25 10:58:44;;;;;;;;;1.00;1.00;;;;;22.87;43.11;101096.47;5044975;28;46068;-58
2022/09/25 11:01:15;;;;;;;;;3.75;2.00;;;;;23.06;42.89;101092.69;5059848;28;45222;-58
2022/09/25 11:03:57;;;;;;;;;2.50;1.25;;;;;23.29;42.77;101099.31;5059851;28;45423;-58
2022/09/25 11:06:29;;;;;;;;;0.75;0.75;;;;;23.54;42.66;101095.09;5059615;28;45525;-58
2022/09/25 11:08:57;;;;;;;;;1.00;1.00;;;;;23.77;42.53;101099.00;5042319;28;47451;-58
2022/09/25 11:11:26;;;;;;;;;2.25;0.50;;;;;24.02;42.55;101095.63;5045805;28;45386;-59
2022/09/25 11:14:03;;;;;;;;;2.75;1.00;;;;;24.26;42.55;101092.25;5043085;28;45296;-58
2022/09/25 11:16:49;;;;;;;;;0.00;0.00;;;;;24.56;42.48;101103.75;5043196;28;45428;-58
2022/09/25 11:19:23;;;;;;;;;1.00;1.00;;;;;24.81;42.11;101097.59;5042682;28;46209;-58
2022/09/25 11:22:09;;;;;;;;;1.00;1.00;;;;;25.15;42.28;101109.53;5041269;28;45457;-58
2022/09/25 11:24:57;;;;;;;;;1.50;1.50;;;;;25.50;42.04;101099.97;5043512;28;45532;-58
2022/09/25 11:27:29;;;;;;;;;2.00;2.00;;;;;25.92;42.44;101110.41;5042768;28;45265;-58
2022/09/25 11:30:05;;;;;;;;;2.00;0.00;;;;;26.33;42.37;101102.97;5042457;28;46628;-58
2022/09/25 11:32:33;;;;;;;;;3.25;1.75;;;;;26.76;42.31;101114.03;5024777;28;45179;-58
2022/09/25 11:35:02;;;;;;;;;5.50;5.50;;;;;27.20;42.80;101111.56;5042580;28;45289;-58
2022/09/25 11:37:39;;;;;;;;;5.50;2.00;;;;;27.65;42.53;101118.84;5042548;28;45253;-58
2022/09/25 11:43:18;;;;;;;;;1.25;1.00;;;;;28.73;42.22;101119.91;5053725;28;45882;-58
2022/09/25 11:46:11;;;;;;;;;10.25;8.75;;;;;29.29;41.97;101109.72;5062812;28;45313;-59
2022/09/25 11:48:42;;;;;;;;;2.75;2.00;;;;;29.81;41.80;101115.91;5059058;28;45274;-58
2022/09/25 11:51:13;;;;;;;;;3.25;2.00;;;;;30.30;41.85;101113.31;5042579;28;45266;-59
2022/09/25 11:53:55;;;;;;;;;1.00;1.00;;;;;30.81;42.06;101105.03;5042513;28;45207;-59
2022/09/25 11:56:27;;;;;;;;;2.25;1.75;;;;;31.31;41.68;101108.47;5042467;28;45321;-59